Nashville, Tennessee
Traffic Map
Current Weather Conditions
Nashville, Tennessee
Scattered Clouds
Scattered Clouds
83°
Feels Like: 89°
Wind Chill: 83° Ceiling: Unl
Heat Index: 89° Visibility: 10mi
Dew Point: 73° Wind: 0mph
Humidity: 72% Direction: ° ()
Pressure: 30.08in Gusts: 0mph
Raw Report DataKBNA 172353Z 00000KT 10SM FEW055 SCT075 SCT250 28/23 A3008 RMK A02 LTG DSNT E SLP179 60035 T02830228 10356 20239 55000 $
Traffic Incident Summary
Active as of:
Severity:
Category:
InformationThere was an issue retrieving the traffic information for this location. Please try a different location or try again shortly.
Advertisements